Home   Weather   Pakistan   Khanewal   Past weeks
Flag for Pakistan

Past Weather in Khanewal, Pakistan — Yesterday and Last 2 Weeks

Currently: 84 °F. Clear. (Weather station: Multan Airport, Pakistan). See more current weather

Past Weather in Khanewal — Graph

°F

Khanewal Temperature Yesterday

Maximum temperature yesterday: 111 °F (at 3:30 pm)
Minimum temperature yesterday: 84 °F (at 4:55 am)
Average temperature yesterday: 100 °F

High & Low Weather Summary for the Past Weeks

 TemperatureHumidityPressure
High111 °F (May 8, 3:30 pm)69% (May 13, 6:00 am)29.86 "Hg (May 13, 6:00 am)
Low73 °F (May 5, 6:00 am)12% (May 8, 3:30 pm)29.45 "Hg (May 19, 5:30 pm)
Average96 °F33%29.67 "Hg
* Reported May 5 5:00 am — May 20 5:30 am, Khanewal. Weather by CustomWeather, © 2024

Note: Actual official high and low records may vary slightly from our data, if they occured in-between our weather recording intervals... More about our weather records

Khanewal Weather History for the Previous 24 Hours

Scroll right to see more
 ConditionsComfort  
Time TempWeatherWind HumidityBarometerVisibility
5:30 am
Mon, May 20
84 °FClear.No wind55%29.50 "Hg2 mi
4:55 am84 °FClear.No wind55%29.50 "Hg2 mi
4:00 am88 °FClear.No wind49%29.47 "Hg2 mi
3:00 am88 °FClear.No wind49%29.47 "Hg2 mi
2:00 am90 °FHaze.No wind43%29.47 "Hg2 mi
1:00 am91 °FHaze.No wind46%29.47 "Hg2 mi
12:00 am93 °FHaze.No wind41%29.50 "Hg2 mi
11:00 pm
Sun, May 19
95 °FHaze.No wind39%29.50 "Hg2 mi
10:30 pm99 °FHaze.No wind31%29.50 "Hg2 mi
10:00 pm99 °FHaze.No wind31%29.50 "Hg2 mi
9:30 pm100 °FHaze.No wind33%29.47 "Hg3 mi
9:00 pm100 °FHaze.No wind33%29.47 "Hg3 mi
8:00 pm102 °FHaze.No wind29%29.47 "Hg3 mi
7:30 pm104 °FHaze.No wind24%29.47 "Hg3 mi
6:30 pm108 °FHaze.5 mph19%29.45 "Hg3 mi
6:00 pm109 °FHaze.5 mph17%29.45 "Hg3 mi
5:30 pm109 °FHaze.5 mph17%29.45 "Hg3 mi
5:00 pm109 °FHaze.No wind17%29.47 "Hg3 mi
4:30 pm111 °FHaze.5 mph15%29.47 "Hg3 mi
4:00 pm111 °FHaze.7 mph15%29.50 "Hg3 mi
3:30 pm111 °FHaze.7 mph15%29.50 "Hg3 mi
3:00 pm109 °FHaze.12 mph17%29.50 "Hg3 mi
2:30 pm109 °FHaze.7 mph17%29.50 "Hg3 mi
2:00 pm109 °FHaze.9 mph17%29.53 "Hg3 mi
1:30 pm108 °FHaze.5 mph19%29.53 "Hg3 mi
1:00 pm108 °FHaze.7 mph19%29.56 "Hg3 mi
12:30 pm106 °FHaze.5 mph20%29.56 "Hg3 mi
12:00 pm106 °FHaze.7 mph22%29.56 "Hg3 mi
11:30 am104 °FHaze.7 mph23%29.56 "Hg3 mi
11:00 am102 °FHaze.5 mph26%29.59 "Hg3 mi
10:30 am102 °FScattered clouds.5 mph26%29.59 "Hg2 mi
10:00 am100 °FScattered clouds.5 mph25%29.59 "Hg2 mi
9:30 am99 °FScattered clouds.No wind29%29.59 "Hg2 mi
9:00 am95 °FScattered clouds.No wind30%29.59 "Hg2 mi
8:30 am93 °FScattered clouds.5 mph34%29.56 "Hg2 mi
8:00 am91 °FHaze.No wind38%29.56 "Hg2 mi
7:00 am88 °FScattered clouds.No wind43%29.56 "Hg2 mi
6:00 am84 °FPassing clouds.No wind51%29.53 "Hg2 mi
Weather by CustomWeather, © 2024

See weather overview